sensor_id;sensor_type;location;lat;lon;timestamp;P1;durP1;ratioP1;P2;durP2;ratioP2
66893;SDS011;53801;55.786;49.142;2023-04-05T00:00:52;27.40;;;7.88;;
66893;SDS011;53801;55.786;49.142;2023-04-05T00:03:21;31.60;;;6.70;;
66893;SDS011;53801;55.786;49.142;2023-04-05T00:05:50;47.35;;;7.80;;
66893;SDS011;53801;55.786;49.142;2023-04-05T00:08:18;34.80;;;7.18;;
66893;SDS011;53801;55.786;49.142;2023-04-05T00:10:55;36.95;;;8.18;;
66893;SDS011;53801;55.786;49.142;2023-04-05T00:13:47;39.38;;;9.25;;
66893;SDS011;53801;55.786;49.142;2023-04-05T00:16:12;33.40;;;7.97;;
66893;SDS011;53801;55.786;49.142;2023-04-05T00:18:38;32.03;;;8.27;;
66893;SDS011;53801;55.786;49.142;2023-04-05T00:21:04;36.08;;;8.00;;
66893;SDS011;53801;55.786;49.142;2023-04-05T00:23:59;41.28;;;8.45;;
66893;SDS011;53801;55.786;49.142;2023-04-05T00:27:06;32.05;;;7.47;;
66893;SDS011;53801;55.786;49.142;2023-04-05T00:29:31;36.13;;;7.17;;
66893;SDS011;53801;55.786;49.142;2023-04-05T00:31:57;36.95;;;9.10;;
66893;SDS011;53801;55.786;49.142;2023-04-05T00:51:11;36.35;;;6.50;;
66893;SDS011;53801;55.786;49.142;2023-04-05T00:53:45;32.87;;;7.47;;
66893;SDS011;53801;55.786;49.142;2023-04-05T00:57:00;32.17;;;8.10;;
66893;SDS011;53801;55.786;49.142;2023-04-05T00:59:46;44.67;;;7.85;;
66893;SDS011;53801;55.786;49.142;2023-04-05T01:05:39;43.17;;;7.25;;
66893;SDS011;53801;55.786;49.142;2023-04-05T01:08:15;46.03;;;8.30;;
66893;SDS011;53801;55.786;49.142;2023-04-05T01:10:54;41.10;;;7.97;;
66893;SDS011;53801;55.786;49.142;2023-04-05T01:13:19;28.77;;;7.82;;
66893;SDS011;53801;55.786;49.142;2023-04-05T01:15:48;32.22;;;7.70;;
66893;SDS011;53801;55.786;49.142;2023-04-05T01:18:14;32.50;;;7.63;;
66893;SDS011;53801;55.786;49.142;2023-04-05T01:20:51;36.85;;;7.53;;
66893;SDS011;53801;55.786;49.142;2023-04-05T01:26:22;33.45;;;7.50;;
66893;SDS011;53801;55.786;49.142;2023-04-05T01:33:57;45.23;;;8.60;;
66893;SDS011;53801;55.786;49.142;2023-04-05T01:39:45;35.40;;;8.23;;
66893;SDS011;53801;55.786;49.142;2023-04-05T01:42:12;38.27;;;7.80;;
66893;SDS011;53801;55.786;49.142;2023-04-05T01:44:38;39.33;;;7.82;;
66893;SDS011;53801;55.786;49.142;2023-04-05T01:47:04;42.33;;;7.20;;
66893;SDS011;53801;55.786;49.142;2023-04-05T01:49:29;32.87;;;7.87;;
66893;SDS011;53801;55.786;49.142;2023-04-05T01:51:55;29.77;;;7.77;;
66893;SDS011;53801;55.786;49.142;2023-04-05T01:54:20;34.47;;;8.63;;
66893;SDS011;53801;55.786;49.142;2023-04-05T01:56:45;32.43;;;7.33;;
66893;SDS011;53801;55.786;49.142;2023-04-05T01:59:11;31.40;;;7.47;;
66893;SDS011;53801;55.786;49.142;2023-04-05T02:01:36;31.47;;;7.00;;
66893;SDS011;53801;55.786;49.142;2023-04-05T02:04:05;40.30;;;7.00;;
66893;SDS011;53801;55.786;49.142;2023-04-05T02:06:31;37.60;;;7.97;;
66893;SDS011;53801;55.786;49.142;2023-04-05T02:08:57;44.20;;;8.53;;
66893;SDS011;53801;55.786;49.142;2023-04-05T02:11:22;38.07;;;7.90;;
66893;SDS011;53801;55.786;49.142;2023-04-05T02:13:48;38.33;;;8.47;;
66893;SDS011;53801;55.786;49.142;2023-04-05T02:16:13;32.17;;;7.47;;
66893;SDS011;53801;55.786;49.142;2023-04-05T02:18:39;35.63;;;7.23;;
66893;SDS011;53801;55.786;49.142;2023-04-05T02:21:06;32.75;;;8.05;;
66893;SDS011;53801;55.786;49.142;2023-04-05T02:23:32;36.33;;;7.53;;
66893;SDS011;53801;55.786;49.142;2023-04-05T02:25:58;41.38;;;7.82;;
66893;SDS011;53801;55.786;49.142;2023-04-05T02:28:24;36.93;;;7.90;;
66893;SDS011;53801;55.786;49.142;2023-04-05T02:30:50;70.68;;;11.18;;
66893;SDS011;53801;55.786;49.142;2023-04-05T02:33:15;33.87;;;7.30;;
66893;SDS011;53801;55.786;49.142;2023-04-05T02:35:41;40.20;;;9.68;;
66893;SDS011;53801;55.786;49.142;2023-04-05T02:38:06;44.07;;;9.77;;
66893;SDS011;53801;55.786;49.142;2023-04-05T02:40:33;35.55;;;7.70;;
66893;SDS011;53801;55.786;49.142;2023-04-05T02:43:01;51.77;;;8.37;;
66893;SDS011;53801;55.786;49.142;2023-04-05T02:45:30;42.75;;;7.90;;
66893;SDS011;53801;55.786;49.142;2023-04-05T02:47:56;41.40;;;9.00;;
66893;SDS011;53801;55.786;49.142;2023-04-05T02:50:21;43.07;;;8.70;;
66893;SDS011;53801;55.786;49.142;2023-04-05T02:52:47;40.55;;;9.50;;
66893;SDS011;53801;55.786;49.142;2023-04-05T02:55:13;60.47;;;9.13;;
66893;SDS011;53801;55.786;49.142;2023-04-05T02:57:38;50.38;;;10.57;;
66893;SDS011;53801;55.786;49.142;2023-04-05T03:00:04;39.70;;;9.30;;
66893;SDS011;53801;55.786;49.142;2023-04-05T03:02:29;48.07;;;8.93;;
66893;SDS011;53801;55.786;49.142;2023-04-05T03:04:55;51.78;;;8.25;;
66893;SDS011;53801;55.786;49.142;2023-04-05T03:07:21;64.90;;;8.20;;
66893;SDS011;53801;55.786;49.142;2023-04-05T03:09:49;31.92;;;6.70;;
66893;SDS011;53801;55.786;49.142;2023-04-05T03:12:15;40.90;;;7.10;;
66893;SDS011;53801;55.786;49.142;2023-04-05T03:14:40;27.75;;;5.80;;
66893;SDS011;53801;55.786;49.142;2023-04-05T03:17:06;44.57;;;8.37;;
66893;SDS011;53801;55.786;49.142;2023-04-05T03:19:31;27.27;;;6.50;;
66893;SDS011;53801;55.786;49.142;2023-04-05T03:21:57;34.43;;;7.27;;
66893;SDS011;53801;55.786;49.142;2023-04-05T03:24:22;63.67;;;10.03;;
66893;SDS011;53801;55.786;49.142;2023-04-05T03:26:48;30.08;;;7.95;;
66893;SDS011;53801;55.786;49.142;2023-04-05T03:29:18;30.50;;;6.53;;
66893;SDS011;53801;55.786;49.142;2023-04-05T03:31:44;24.02;;;6.32;;
66893;SDS011;53801;55.786;49.142;2023-04-05T03:34:09;33.60;;;6.47;;
66893;SDS011;53801;55.786;49.142;2023-04-05T03:39:08;27.60;;;6.93;;
66893;SDS011;53801;55.786;49.142;2023-04-05T03:41:34;24.98;;;5.93;;
66893;SDS011;53801;55.786;49.142;2023-04-05T03:44:00;46.77;;;8.27;;
66893;SDS011;53801;55.786;49.142;2023-04-05T03:46:25;35.60;;;7.43;;
66893;SDS011;53801;55.786;49.142;2023-04-05T03:48:50;28.20;;;7.57;;
66893;SDS011;53801;55.786;49.142;2023-04-05T03:51:16;42.83;;;8.27;;
66893;SDS011;53801;55.786;49.142;2023-04-05T03:53:43;35.25;;;7.90;;
66893;SDS011;53801;55.786;49.142;2023-04-05T03:56:08;26.67;;;7.68;;
66893;SDS011;53801;55.786;49.142;2023-04-05T03:58:34;47.33;;;7.82;;
66893;SDS011;53801;55.786;49.142;2023-04-05T04:01:00;51.65;;;9.25;;
66893;SDS011;53801;55.786;49.142;2023-04-05T04:03:25;51.20;;;8.23;;
66893;SDS011;53801;55.786;49.142;2023-04-05T04:05:55;47.22;;;8.15;;
66893;SDS011;53801;55.786;49.142;2023-04-05T04:08:21;37.60;;;9.00;;
66893;SDS011;53801;55.786;49.142;2023-04-05T04:10:46;64.47;;;8.55;;
66893;SDS011;53801;55.786;49.142;2023-04-05T04:15:41;53.03;;;9.20;;
66893;SDS011;53801;55.786;49.142;2023-04-05T04:18:07;49.07;;;10.27;;
66893;SDS011;53801;55.786;49.142;2023-04-05T04:20:32;53.60;;;10.23;;
66893;SDS011;53801;55.786;49.142;2023-04-05T04:22:58;64.20;;;10.90;;
66893;SDS011;53801;55.786;49.142;2023-04-05T04:25:23;54.67;;;9.10;;
66893;SDS011;53801;55.786;49.142;2023-04-05T04:27:50;63.05;;;9.60;;
66893;SDS011;53801;55.786;49.142;2023-04-05T04:30:17;58.37;;;10.13;;
66893;SDS011;53801;55.786;49.142;2023-04-05T04:32:42;57.33;;;10.13;;
66893;SDS011;53801;55.786;49.142;2023-04-05T04:35:17;48.30;;;10.68;;
66893;SDS011;53801;55.786;49.142;2023-04-05T04:38:05;53.20;;;10.90;;
66893;SDS011;53801;55.786;49.142;2023-04-05T04:40:34;54.17;;;10.90;;
66893;SDS011;53801;55.786;49.142;2023-04-05T04:43:13;72.93;;;11.37;;
66893;SDS011;53801;55.786;49.142;2023-04-05T04:45:45;75.57;;;11.77;;
66893;SDS011;53801;55.786;49.142;2023-04-05T04:48:14;65.90;;;12.00;;
66893;SDS011;53801;55.786;49.142;2023-04-05T04:50:41;51.33;;;11.32;;
66893;SDS011;53801;55.786;49.142;2023-04-05T04:53:10;67.30;;;12.32;;
66893;SDS011;53801;55.786;49.142;2023-04-05T04:55:39;68.53;;;12.37;;
66893;SDS011;53801;55.786;49.142;2023-04-05T04:58:07;74.00;;;14.07;;
66893;SDS011;53801;55.786;49.142;2023-04-05T05:00:40;78.75;;;13.80;;
66893;SDS011;53801;55.786;49.142;2023-04-05T05:03:09;79.85;;;14.35;;
66893;SDS011;53801;55.786;49.142;2023-04-05T05:05:43;161.52;;;20.38;;
66893;SDS011;53801;55.786;49.142;2023-04-05T05:08:09;94.40;;;16.87;;
66893;SDS011;53801;55.786;49.142;2023-04-05T05:10:35;91.50;;;15.07;;
66893;SDS011;53801;55.786;49.142;2023-04-05T05:13:00;70.83;;;15.50;;
66893;SDS011;53801;55.786;49.142;2023-04-05T05:15:26;111.80;;;16.87;;
66893;SDS011;53801;55.786;49.142;2023-04-05T05:17:51;92.35;;;15.43;;
66893;SDS011;53801;55.786;49.142;2023-04-05T05:20:19;79.05;;;13.75;;
66893;SDS011;53801;55.786;49.142;2023-04-05T05:22:44;98.40;;;15.60;;
66893;SDS011;53801;55.786;49.142;2023-04-05T05:25:14;91.80;;;16.00;;
66893;SDS011;53801;55.786;49.142;2023-04-05T05:30:57;80.65;;;14.15;;
66893;SDS011;53801;55.786;49.142;2023-04-05T05:33:31;69.55;;;14.05;;
66893;SDS011;53801;55.786;49.142;2023-04-05T05:35:57;79.40;;;14.60;;
66893;SDS011;53801;55.786;49.142;2023-04-05T05:38:22;82.13;;;14.87;;
66893;SDS011;53801;55.786;49.142;2023-04-05T05:40:48;49.60;;;13.07;;
66893;SDS011;53801;55.786;49.142;2023-04-05T05:43:18;84.35;;;14.52;;
66893;SDS011;53801;55.786;49.142;2023-04-05T05:45:47;67.07;;;14.70;;
66893;SDS011;53801;55.786;49.142;2023-04-05T05:48:12;57.00;;;13.63;;
66893;SDS011;53801;55.786;49.142;2023-04-05T05:50:38;66.60;;;14.80;;
66893;SDS011;53801;55.786;49.142;2023-04-05T05:53:03;75.13;;;14.80;;
66893;SDS011;53801;55.786;49.142;2023-04-05T05:55:29;57.73;;;14.03;;
66893;SDS011;53801;55.786;49.142;2023-04-05T05:57:54;68.38;;;13.23;;
66893;SDS011;53801;55.786;49.142;2023-04-05T06:00:20;58.13;;;13.17;;
66893;SDS011;53801;55.786;49.142;2023-04-05T06:02:46;85.10;;;15.37;;
66893;SDS011;53801;55.786;49.142;2023-04-05T06:05:14;79.93;;;14.00;;
66893;SDS011;53801;55.786;49.142;2023-04-05T06:07:40;80.38;;;15.40;;
66893;SDS011;53801;55.786;49.142;2023-04-05T06:10:06;83.93;;;13.83;;
66893;SDS011;53801;55.786;49.142;2023-04-05T06:15:45;72.68;;;12.52;;
66893;SDS011;53801;55.786;49.142;2023-04-05T06:18:11;74.73;;;12.40;;
66893;SDS011;53801;55.786;49.142;2023-04-05T06:20:37;91.50;;;14.85;;
66893;SDS011;53801;55.786;49.142;2023-04-05T06:23:07;78.73;;;12.43;;
66893;SDS011;53801;55.786;49.142;2023-04-05T06:25:33;87.32;;;11.80;;
66893;SDS011;53801;55.786;49.142;2023-04-05T06:27:58;98.82;;;11.23;;
66893;SDS011;53801;55.786;49.142;2023-04-05T06:30:24;99.23;;;10.93;;
66893;SDS011;53801;55.786;49.142;2023-04-05T06:32:49;88.03;;;10.38;;
66893;SDS011;53801;55.786;49.142;2023-04-05T06:37:46;97.38;;;11.07;;
66893;SDS011;53801;55.786;49.142;2023-04-05T06:40:12;98.35;;;11.57;;
66893;SDS011;53801;55.786;49.142;2023-04-05T06:42:38;91.72;;;11.63;;
66893;SDS011;53801;55.786;49.142;2023-04-05T06:47:45;87.05;;;11.05;;
66893;SDS011;53801;55.786;49.142;2023-04-05T06:55:48;97.55;;;9.98;;
66893;SDS011;53801;55.786;49.142;2023-04-05T07:01:07;108.03;;;12.00;;
66893;SDS011;53801;55.786;49.142;2023-04-05T07:06:21;117.25;;;13.98;;
66893;SDS011;53801;55.786;49.142;2023-04-05T07:09:10;126.90;;;15.30;;
66893;SDS011;53801;55.786;49.142;2023-04-05T07:11:35;107.17;;;14.50;;
66893;SDS011;53801;55.786;49.142;2023-04-05T07:14:01;94.50;;;14.07;;
66893;SDS011;53801;55.786;49.142;2023-04-05T07:16:26;98.30;;;13.27;;
66893;SDS011;53801;55.786;49.142;2023-04-05T07:18:52;101.37;;;13.37;;
66893;SDS011;53801;55.786;49.142;2023-04-05T07:21:17;129.43;;;25.07;;
66893;SDS011;53801;55.786;49.142;2023-04-05T07:23:42;71.70;;;11.30;;
66893;SDS011;53801;55.786;49.142;2023-04-05T07:26:08;79.97;;;11.17;;
66893;SDS011;53801;55.786;49.142;2023-04-05T07:28:43;76.72;;;12.07;;
66893;SDS011;53801;55.786;49.142;2023-04-05T07:31:09;115.23;;;13.87;;
66893;SDS011;53801;55.786;49.142;2023-04-05T07:33:34;80.03;;;11.43;;
66893;SDS011;53801;55.786;49.142;2023-04-05T07:36:00;64.95;;;11.15;;
66893;SDS011;53801;55.786;49.142;2023-04-05T07:38:25;78.53;;;10.93;;
66893;SDS011;53801;55.786;49.142;2023-04-05T07:40:51;84.15;;;12.80;;
66893;SDS011;53801;55.786;49.142;2023-04-05T07:43:17;90.70;;;13.07;;
66893;SDS011;53801;55.786;49.142;2023-04-05T07:45:43;106.40;;;15.02;;
66893;SDS011;53801;55.786;49.142;2023-04-05T07:48:08;118.23;;;16.87;;
66893;SDS011;53801;55.786;49.142;2023-04-05T07:50:34;81.53;;;14.20;;
66893;SDS011;53801;55.786;49.142;2023-04-05T07:53:07;72.68;;;11.85;;
66893;SDS011;53801;55.786;49.142;2023-04-05T07:55:36;58.47;;;11.47;;
66893;SDS011;53801;55.786;49.142;2023-04-05T07:58:01;85.15;;;13.38;;
66893;SDS011;53801;55.786;49.142;2023-04-05T08:00:27;66.10;;;12.43;;
66893;SDS011;53801;55.786;49.142;2023-04-05T08:02:52;48.60;;;10.50;;
66893;SDS011;53801;55.786;49.142;2023-04-05T08:05:18;56.77;;;10.87;;
66893;SDS011;53801;55.786;49.142;2023-04-05T08:07:43;77.13;;;11.80;;
66893;SDS011;53801;55.786;49.142;2023-04-05T08:10:09;47.23;;;10.37;;
66893;SDS011;53801;55.786;49.142;2023-04-05T08:12:34;77.25;;;14.05;;
66893;SDS011;53801;55.786;49.142;2023-04-05T08:15:00;27.47;;;8.43;;
66893;SDS011;53801;55.786;49.142;2023-04-05T08:20:00;51.38;;;12.10;;
66893;SDS011;53801;55.786;49.142;2023-04-05T08:22:29;39.40;;;10.33;;
66893;SDS011;53801;55.786;49.142;2023-04-05T08:24:54;33.47;;;9.68;;
66893;SDS011;53801;55.786;49.142;2023-04-05T08:27:20;39.27;;;10.77;;
66893;SDS011;53801;55.786;49.142;2023-04-05T08:29:45;58.45;;;14.77;;
66893;SDS011;53801;55.786;49.142;2023-04-05T08:32:10;72.80;;;16.13;;
66893;SDS011;53801;55.786;49.142;2023-04-05T08:34:36;56.83;;;14.17;;
66893;SDS011;53801;55.786;49.142;2023-04-05T08:42:07;63.75;;;14.40;;
66893;SDS011;53801;55.786;49.142;2023-04-05T08:44:36;40.27;;;9.87;;
66893;SDS011;53801;55.786;49.142;2023-04-05T08:47:01;62.38;;;12.57;;
66893;SDS011;53801;55.786;49.142;2023-04-05T08:52:12;64.70;;;14.70;;
66893;SDS011;53801;55.786;49.142;2023-04-05T08:54:38;92.10;;;15.30;;
66893;SDS011;53801;55.786;49.142;2023-04-05T08:57:03;62.45;;;14.52;;
66893;SDS011;53801;55.786;49.142;2023-04-05T08:59:32;75.50;;;16.27;;
66893;SDS011;53801;55.786;49.142;2023-04-05T09:04:48;66.93;;;17.42;;
66893;SDS011;53801;55.786;49.142;2023-04-05T09:07:14;50.78;;;15.60;;
66893;SDS011;53801;55.786;49.142;2023-04-05T09:09:48;79.40;;;18.23;;
66893;SDS011;53801;55.786;49.142;2023-04-05T09:12:16;66.40;;;17.40;;
66893;SDS011;53801;55.786;49.142;2023-04-05T09:14:44;62.85;;;17.00;;
66893;SDS011;53801;55.786;49.142;2023-04-05T09:17:10;64.45;;;16.27;;
66893;SDS011;53801;55.786;49.142;2023-04-05T09:19:36;70.43;;;16.13;;
66893;SDS011;53801;55.786;49.142;2023-04-05T09:27:02;78.10;;;14.70;;
66893;SDS011;53801;55.786;49.142;2023-04-05T09:29:28;59.28;;;12.80;;
66893;SDS011;53801;55.786;49.142;2023-04-05T09:31:54;71.73;;;13.50;;
66893;SDS011;53801;55.786;49.142;2023-04-05T09:34:20;51.22;;;11.48;;
66893;SDS011;53801;55.786;49.142;2023-04-05T09:36:48;61.88;;;12.90;;
66893;SDS011;53801;55.786;49.142;2023-04-05T09:39:13;60.63;;;12.37;;
66893;SDS011;53801;55.786;49.142;2023-04-05T09:41:44;62.45;;;12.57;;
66893;SDS011;53801;55.786;49.142;2023-04-05T09:44:28;95.32;;;15.90;;
66893;SDS011;53801;55.786;49.142;2023-04-05T09:47:15;71.15;;;14.30;;
66893;SDS011;53801;55.786;49.142;2023-04-05T09:49:41;50.47;;;11.73;;
66893;SDS011;53801;55.786;49.142;2023-04-05T09:52:23;56.13;;;10.50;;
66893;SDS011;53801;55.786;49.142;2023-04-05T09:54:50;59.08;;;12.57;;
66893;SDS011;53801;55.786;49.142;2023-04-05T09:57:16;49.75;;;9.95;;
66893;SDS011;53801;55.786;49.142;2023-04-05T09:59:42;50.17;;;10.60;;
66893;SDS011;53801;55.786;49.142;2023-04-05T10:02:09;66.77;;;10.73;;
66893;SDS011;53801;55.786;49.142;2023-04-05T10:04:41;55.83;;;10.93;;
66893;SDS011;53801;55.786;49.142;2023-04-05T10:07:08;55.70;;;10.73;;
66893;SDS011;53801;55.786;49.142;2023-04-05T10:12:24;56.55;;;9.35;;
66893;SDS011;53801;55.786;49.142;2023-04-05T10:14:53;62.60;;;11.18;;
66893;SDS011;53801;55.786;49.142;2023-04-05T10:25:08;61.15;;;11.15;;
66893;SDS011;53801;55.786;49.142;2023-04-05T10:30:06;46.60;;;9.98;;
66893;SDS011;53801;55.786;49.142;2023-04-05T10:32:40;40.53;;;8.95;;
66893;SDS011;53801;55.786;49.142;2023-04-05T10:35:16;51.22;;;10.23;;
66893;SDS011;53801;55.786;49.142;2023-04-05T10:40:26;47.50;;;9.77;;
66893;SDS011;53801;55.786;49.142;2023-04-05T10:42:56;49.70;;;10.20;;
66893;SDS011;53801;55.786;49.142;2023-04-05T10:45:21;48.47;;;9.70;;
66893;SDS011;53801;55.786;49.142;2023-04-05T10:47:57;44.40;;;9.68;;
66893;SDS011;53801;55.786;49.142;2023-04-05T10:50:23;46.92;;;9.75;;
66893;SDS011;53801;55.786;49.142;2023-04-05T10:52:50;45.50;;;8.93;;
66893;SDS011;53801;55.786;49.142;2023-04-05T10:55:15;46.80;;;8.40;;
66893;SDS011;53801;55.786;49.142;2023-04-05T10:57:42;57.08;;;8.30;;
66893;SDS011;53801;55.786;49.142;2023-04-05T11:00:08;66.03;;;8.88;;
66893;SDS011;53801;55.786;49.142;2023-04-05T11:02:37;52.60;;;7.85;;
66893;SDS011;53801;55.786;49.142;2023-04-05T11:05:06;54.55;;;7.45;;
66893;SDS011;53801;55.786;49.142;2023-04-05T11:10:17;77.23;;;7.80;;
66893;SDS011;53801;55.786;49.142;2023-04-05T11:18:05;40.05;;;6.20;;
66893;SDS011;53801;55.786;49.142;2023-04-05T11:20:44;54.92;;;7.15;;
66893;SDS011;53801;55.786;49.142;2023-04-05T11:23:10;49.93;;;6.80;;
66893;SDS011;53801;55.786;49.142;2023-04-05T11:25:37;42.20;;;5.70;;
66893;SDS011;53801;55.786;49.142;2023-04-05T11:28:04;59.60;;;5.70;;
66893;SDS011;53801;55.786;49.142;2023-04-05T11:33:10;53.78;;;6.63;;
66893;SDS011;53801;55.786;49.142;2023-04-05T11:35:38;66.63;;;7.63;;
66893;SDS011;53801;55.786;49.142;2023-04-05T11:40:36;56.63;;;5.77;;
66893;SDS011;53801;55.786;49.142;2023-04-05T11:43:08;92.57;;;10.50;;
66893;SDS011;53801;55.786;49.142;2023-04-05T11:45:38;71.23;;;7.67;;
66893;SDS011;53801;55.786;49.142;2023-04-05T11:48:04;56.90;;;6.13;;
66893;SDS011;53801;55.786;49.142;2023-04-05T11:50:32;43.05;;;6.25;;
66893;SDS011;53801;55.786;49.142;2023-04-05T11:58:21;42.93;;;5.33;;
66893;SDS011;53801;55.786;49.142;2023-04-05T12:00:57;43.67;;;4.65;;
66893;SDS011;53801;55.786;49.142;2023-04-05T12:03:43;62.13;;;6.32;;
66893;SDS011;53801;55.786;49.142;2023-04-05T12:08:44;45.75;;;5.20;;
66893;SDS011;53801;55.786;49.142;2023-04-05T12:11:24;38.95;;;4.90;;
66893;SDS011;53801;55.786;49.142;2023-04-05T12:13:54;64.43;;;8.10;;
66893;SDS011;53801;55.786;49.142;2023-04-05T12:25:04;52.03;;;5.25;;
66893;SDS011;53801;55.786;49.142;2023-04-05T12:30:16;57.05;;;6.40;;
66893;SDS011;53801;55.786;49.142;2023-04-05T12:32:51;41.87;;;5.53;;
66893;SDS011;53801;55.786;49.142;2023-04-05T12:35:28;60.97;;;6.13;;
66893;SDS011;53801;55.786;49.142;2023-04-05T12:38:03;53.88;;;5.43;;
66893;SDS011;53801;55.786;49.142;2023-04-05T12:40:30;54.78;;;5.45;;
66893;SDS011;53801;55.786;49.142;2023-04-05T12:43:00;48.20;;;5.97;;
66893;SDS011;53801;55.786;49.142;2023-04-05T12:45:26;56.17;;;6.57;;
66893;SDS011;53801;55.786;49.142;2023-04-05T12:47:55;40.65;;;4.55;;
66893;SDS011;53801;55.786;49.142;2023-04-05T12:50:24;61.70;;;6.55;;
66893;SDS011;53801;55.786;49.142;2023-04-05T12:55:46;52.58;;;6.63;;
66893;SDS011;53801;55.786;49.142;2023-04-05T12:58:12;61.22;;;5.78;;
66893;SDS011;53801;55.786;49.142;2023-04-05T13:03:36;63.33;;;6.07;;
66893;SDS011;53801;55.786;49.142;2023-04-05T13:06:02;78.27;;;6.93;;
66893;SDS011;53801;55.786;49.142;2023-04-05T13:08:27;65.65;;;7.47;;
66893;SDS011;53801;55.786;49.142;2023-04-05T13:10:53;47.93;;;5.53;;
66893;SDS011;53801;55.786;49.142;2023-04-05T13:13:18;45.28;;;4.88;;
66893;SDS011;53801;55.786;49.142;2023-04-05T13:15:48;70.38;;;6.43;;
66893;SDS011;53801;55.786;49.142;2023-04-05T13:18:18;51.28;;;5.15;;
66893;SDS011;53801;55.786;49.142;2023-04-05T13:20:44;83.60;;;7.07;;
66893;SDS011;53801;55.786;49.142;2023-04-05T13:23:09;59.90;;;5.50;;
66893;SDS011;53801;55.786;49.142;2023-04-05T13:31:07;60.83;;;6.20;;
66893;SDS011;53801;55.786;49.142;2023-04-05T13:33:36;51.33;;;6.90;;
66893;SDS011;53801;55.786;49.142;2023-04-05T13:36:04;89.45;;;8.10;;
66893;SDS011;53801;55.786;49.142;2023-04-05T13:41:18;99.77;;;7.93;;
66893;SDS011;53801;55.786;49.142;2023-04-05T13:43:45;50.05;;;4.53;;
66893;SDS011;53801;55.786;49.142;2023-04-05T13:46:11;57.08;;;6.57;;
66893;SDS011;53801;55.786;49.142;2023-04-05T13:48:36;59.87;;;5.50;;
66893;SDS011;53801;55.786;49.142;2023-04-05T13:51:02;75.10;;;7.00;;
66893;SDS011;53801;55.786;49.142;2023-04-05T13:53:28;82.23;;;7.63;;
66893;SDS011;53801;55.786;49.142;2023-04-05T13:55:53;81.25;;;8.70;;
66893;SDS011;53801;55.786;49.142;2023-04-05T13:58:19;72.53;;;6.65;;
66893;SDS011;53801;55.786;49.142;2023-04-05T14:00:45;72.63;;;6.97;;
66893;SDS011;53801;55.786;49.142;2023-04-05T14:03:11;76.82;;;6.03;;
66893;SDS011;53801;55.786;49.142;2023-04-05T14:05:37;98.95;;;9.90;;
66893;SDS011;53801;55.786;49.142;2023-04-05T14:08:02;82.00;;;7.60;;
66893;SDS011;53801;55.786;49.142;2023-04-05T14:10:30;95.15;;;9.77;;
66893;SDS011;53801;55.786;49.142;2023-04-05T14:12:55;109.50;;;8.40;;
66893;SDS011;53801;55.786;49.142;2023-04-05T14:17:50;131.68;;;10.00;;
66893;SDS011;53801;55.786;49.142;2023-04-05T14:20:15;86.53;;;7.33;;
66893;SDS011;53801;55.786;49.142;2023-04-05T14:22:43;71.93;;;6.83;;
66893;SDS011;53801;55.786;49.142;2023-04-05T14:25:16;78.03;;;6.53;;
66893;SDS011;53801;55.786;49.142;2023-04-05T14:27:42;93.28;;;6.97;;
66893;SDS011;53801;55.786;49.142;2023-04-05T14:30:08;74.05;;;6.22;;
66893;SDS011;53801;55.786;49.142;2023-04-05T14:35:36;62.83;;;6.30;;
66893;SDS011;53801;55.786;49.142;2023-04-05T14:40:56;67.68;;;5.85;;
66893;SDS011;53801;55.786;49.142;2023-04-05T14:43:22;59.40;;;6.50;;
66893;SDS011;53801;55.786;49.142;2023-04-05T14:45:47;74.25;;;7.28;;
66893;SDS011;53801;55.786;49.142;2023-04-05T14:53:48;91.80;;;7.65;;
66893;SDS011;53801;55.786;49.142;2023-04-05T14:56:21;126.00;;;10.60;;
66893;SDS011;53801;55.786;49.142;2023-04-05T14:58:48;53.28;;;5.78;;
66893;SDS011;53801;55.786;49.142;2023-04-05T15:01:13;74.43;;;6.80;;
66893;SDS011;53801;55.786;49.142;2023-04-05T15:03:39;75.27;;;7.13;;
66893;SDS011;53801;55.786;49.142;2023-04-05T15:06:05;72.93;;;7.97;;
66893;SDS011;53801;55.786;49.142;2023-04-05T15:08:30;82.90;;;7.10;;
66893;SDS011;53801;55.786;49.142;2023-04-05T15:10:56;58.70;;;6.13;;
66893;SDS011;53801;55.786;49.142;2023-04-05T15:13:32;127.13;;;9.25;;
66893;SDS011;53801;55.786;49.142;2023-04-05T15:18:49;97.18;;;8.13;;
66893;SDS011;53801;55.786;49.142;2023-04-05T15:24:17;60.53;;;6.70;;
66893;SDS011;53801;55.786;49.142;2023-04-05T15:29:27;49.05;;;4.75;;
66893;SDS011;53801;55.786;49.142;2023-04-05T15:31:53;44.07;;;4.20;;
66893;SDS011;53801;55.786;49.142;2023-04-05T15:34:18;62.10;;;5.57;;
66893;SDS011;53801;55.786;49.142;2023-04-05T15:36:44;72.83;;;7.13;;
66893;SDS011;53801;55.786;49.142;2023-04-05T15:39:10;69.73;;;6.43;;
66893;SDS011;53801;55.786;49.142;2023-04-05T15:41:36;76.45;;;7.63;;
66893;SDS011;53801;55.786;49.142;2023-04-05T15:44:02;78.00;;;6.63;;
66893;SDS011;53801;55.786;49.142;2023-04-05T15:46:28;55.17;;;5.47;;
66893;SDS011;53801;55.786;49.142;2023-04-05T15:48:53;44.97;;;5.65;;
66893;SDS011;53801;55.786;49.142;2023-04-05T15:51:19;38.53;;;4.80;;
66893;SDS011;53801;55.786;49.142;2023-04-05T15:53:44;64.50;;;6.80;;
66893;SDS011;53801;55.786;49.142;2023-04-05T15:56:10;76.40;;;6.80;;
66893;SDS011;53801;55.786;49.142;2023-04-05T16:01:10;65.07;;;5.90;;
66893;SDS011;53801;55.786;49.142;2023-04-05T16:03:36;49.83;;;4.93;;
66893;SDS011;53801;55.786;49.142;2023-04-05T16:06:02;44.40;;;4.60;;
66893;SDS011;53801;55.786;49.142;2023-04-05T16:08:27;54.70;;;6.87;;
66893;SDS011;53801;55.786;49.142;2023-04-05T16:10:52;88.80;;;8.00;;
66893;SDS011;53801;55.786;49.142;2023-04-05T16:13:19;69.22;;;7.43;;
66893;SDS011;53801;55.786;49.142;2023-04-05T16:15:45;57.33;;;6.22;;
66893;SDS011;53801;55.786;49.142;2023-04-05T16:18:10;73.45;;;6.90;;
66893;SDS011;53801;55.786;49.142;2023-04-05T16:20:38;46.43;;;5.00;;
66893;SDS011;53801;55.786;49.142;2023-04-05T16:23:04;65.45;;;6.57;;
66893;SDS011;53801;55.786;49.142;2023-04-05T16:25:30;61.63;;;6.82;;
66893;SDS011;53801;55.786;49.142;2023-04-05T16:27:55;53.50;;;6.17;;
66893;SDS011;53801;55.786;49.142;2023-04-05T16:30:21;96.03;;;8.88;;
66893;SDS011;53801;55.786;49.142;2023-04-05T16:32:48;80.37;;;6.83;;
66893;SDS011;53801;55.786;49.142;2023-04-05T16:35:14;67.95;;;7.13;;
66893;SDS011;53801;55.786;49.142;2023-04-05T16:37:39;56.67;;;5.73;;
66893;SDS011;53801;55.786;49.142;2023-04-05T16:40:07;81.43;;;7.10;;
66893;SDS011;53801;55.786;49.142;2023-04-05T16:42:34;43.58;;;5.10;;
66893;SDS011;53801;55.786;49.142;2023-04-05T16:45:00;71.90;;;7.37;;
66893;SDS011;53801;55.786;49.142;2023-04-05T16:47:28;71.00;;;5.93;;
66893;SDS011;53801;55.786;49.142;2023-04-05T16:49:54;82.17;;;6.57;;
66893;SDS011;53801;55.786;49.142;2023-04-05T16:52:19;88.13;;;7.20;;
66893;SDS011;53801;55.786;49.142;2023-04-05T16:54:44;88.90;;;8.03;;
66893;SDS011;53801;55.786;49.142;2023-04-05T16:57:10;90.57;;;9.17;;
66893;SDS011;53801;55.786;49.142;2023-04-05T16:59:35;77.00;;;8.07;;
66893;SDS011;53801;55.786;49.142;2023-04-05T17:02:01;66.23;;;7.10;;
66893;SDS011;53801;55.786;49.142;2023-04-05T17:06:56;54.20;;;5.50;;